createdAt,value
2022-12-03T00:02:20.617Z,98547.81
2022-12-03T00:04:47.535Z,98546.09
2022-12-03T00:07:14.243Z,98552.16
2022-12-03T00:09:41.055Z,98540.81
2022-12-03T00:12:08.767Z,98540.78
2022-12-03T00:14:38.791Z,98539.91
2022-12-03T00:17:08.014Z,98544.31
2022-12-03T00:19:34.948Z,98540.00
2022-12-03T00:22:03.080Z,98546.09
2022-12-03T00:24:29.841Z,98543.47
2022-12-03T00:26:56.584Z,98545.25
2022-12-03T00:29:23.253Z,98546.16
2022-12-03T00:31:49.878Z,98545.31
2022-12-03T00:34:16.531Z,98548.72
2022-12-03T00:36:43.235Z,98547.88
2022-12-03T00:39:09.979Z,98556.56
2022-12-03T00:41:36.653Z,98547.00
2022-12-03T00:44:03.338Z,98546.94
2022-12-03T00:46:30.095Z,98551.34
2022-12-03T00:48:56.882Z,98543.44
2022-12-03T00:51:23.531Z,98549.53
2022-12-03T00:53:50.241Z,98548.59
2022-12-03T00:56:16.955Z,98548.47
2022-12-03T00:58:43.618Z,98548.53
2022-12-03T01:01:10.264Z,98545.13
2022-12-03T01:03:37.902Z,98542.53
2022-12-03T01:06:04.756Z,98541.59
2022-12-03T01:08:31.492Z,98546.66
2022-12-03T01:10:58.107Z,98546.75
2022-12-03T01:13:24.766Z,98546.75
2022-12-03T01:15:51.636Z,98547.63
2022-12-03T01:18:18.427Z,98552.00
2022-12-03T01:20:45.229Z,98554.59
2022-12-03T01:23:13.051Z,98549.44
2022-12-03T01:25:39.794Z,98553.78
2022-12-03T01:28:06.436Z,98550.34
2022-12-03T01:30:53.401Z,98558.06
2022-12-03T01:33:20.096Z,98559.03
2022-12-03T01:35:46.775Z,98559.03
2022-12-03T01:38:13.373Z,98559.91
2022-12-03T01:40:40.031Z,98560.88
2022-12-03T01:43:06.700Z,98556.38
2022-12-03T01:45:33.476Z,98566.00
2022-12-03T01:48:00.666Z,98562.53
2022-12-03T01:50:32.968Z,98565.19
2022-12-03T01:53:02.256Z,98562.38
2022-12-03T01:55:29.667Z,98565.94
2022-12-03T01:58:00.307Z,98559.88
2022-12-03T02:00:27.753Z,98561.63
2022-12-03T02:03:00.944Z,98561.63
2022-12-03T02:05:30.777Z,98561.38
2022-12-03T02:07:58.266Z,98555.31
2022-12-03T02:10:36.128Z,98562.38
2022-12-03T02:13:10.659Z,98560.72
2022-12-03T02:15:39.728Z,98557.03
2022-12-03T02:18:08.677Z,98554.59
2022-12-03T02:20:45.456Z,98556.31
2022-12-03T02:23:25.364Z,98548.50
2022-12-03T02:25:52.087Z,98551.97
2022-12-03T02:28:18.803Z,98552.00
2022-12-03T02:30:45.473Z,98554.59
2022-12-03T02:33:12.145Z,98558.88
2022-12-03T02:35:39.797Z,98560.53
2022-12-03T02:38:14.169Z,98565.81
2022-12-03T02:40:41.986Z,98563.34
2022-12-03T02:43:09.681Z,98559.84
2022-12-03T02:45:41.451Z,98553.84
2022-12-03T02:48:11.874Z,98556.53
2022-12-03T02:50:44.300Z,98564.38
2022-12-03T02:53:31.166Z,98561.78
2022-12-03T02:56:00.519Z,98548.66
2022-12-03T02:58:31.227Z,98555.66
2022-12-03T03:00:59.594Z,98552.19
2022-12-03T03:03:29.110Z,98554.84
2022-12-03T03:05:56.770Z,98550.53
2022-12-03T03:08:25.050Z,98552.25
2022-12-03T03:10:52.180Z,98554.94
2022-12-03T03:13:20.138Z,98540.09
2022-12-03T03:15:47.592Z,98555.81
2022-12-03T03:18:15.708Z,98546.06
2022-12-03T03:20:42.621Z,98552.16
2022-12-03T03:23:12.104Z,98546.94
2022-12-03T03:25:41.016Z,98547.88
2022-12-03T03:28:07.882Z,98551.34
2022-12-03T03:30:35.897Z,98549.47
2022-12-03T03:33:02.730Z,98549.47
2022-12-03T03:35:29.532Z,98549.50
2022-12-03T03:37:58.565Z,98539.94
2022-12-03T03:40:26.243Z,98536.41
2022-12-03T03:42:55.462Z,98528.59
2022-12-03T03:45:28.567Z,98530.34
2022-12-03T03:47:57.931Z,98531.22
2022-12-03T03:50:25.612Z,98529.41
2022-12-03T03:52:52.904Z,98525.84
2022-12-03T03:55:20.399Z,98525.88
2022-12-03T03:57:48.200Z,98520.59
2022-12-03T04:00:16.791Z,98525.84
2022-12-03T04:02:43.734Z,98526.66
2022-12-03T04:05:16.929Z,98518.06
2022-12-03T04:07:43.674Z,98518.81
2022-12-03T04:10:30.233Z,98511.81
2022-12-03T04:12:57.078Z,98519.72
2022-12-03T04:15:24.824Z,98520.47
2022-12-03T04:18:10.699Z,98520.56
2022-12-03T04:20:38.074Z,98514.50
2022-12-03T04:23:05.534Z,98513.59
2022-12-03T04:25:51.361Z,98512.81
2022-12-03T04:28:36.651Z,98514.41
2022-12-03T04:31:23.650Z,98511.84
2022-12-03T04:34:09.087Z,98517.97
2022-12-03T04:36:35.799Z,98514.44
2022-12-03T04:39:02.627Z,98507.47
2022-12-03T04:41:29.247Z,98509.28
2022-12-03T04:44:14.651Z,98511.03
2022-12-03T04:46:41.297Z,98504.81
2022-12-03T04:49:07.878Z,98508.38
2022-12-03T04:51:34.580Z,98499.75
2022-12-03T04:54:02.037Z,98500.53
2022-12-03T04:56:28.728Z,98505.75
2022-12-03T04:58:55.458Z,98509.25
2022-12-03T05:01:22.333Z,98508.44
2022-12-03T05:03:49.052Z,98521.53
2022-12-03T05:06:15.764Z,98520.66
2022-12-03T05:08:42.456Z,98524.88
2022-12-03T05:11:09.261Z,98523.09
2022-12-03T05:13:36.263Z,98529.22
2022-12-03T05:16:02.929Z,98528.38
2022-12-03T05:18:29.737Z,98530.94
2022-12-03T05:20:56.491Z,98523.16
2022-12-03T05:23:23.452Z,98524.88
2022-12-03T05:25:50.297Z,98525.75
2022-12-03T05:28:17.312Z,98530.94
2022-12-03T05:30:44.271Z,98532.69
2022-12-03T05:33:11.125Z,98533.63
2022-12-03T05:35:37.719Z,98529.28
2022-12-03T05:38:04.453Z,98520.59
2022-12-03T05:40:31.147Z,98522.22
2022-12-03T05:42:57.897Z,98524.06
2022-12-03T05:45:31.162Z,98517.03
2022-12-03T05:47:59.270Z,98509.97
2022-12-03T05:50:28.455Z,98519.63
2022-12-03T05:52:55.391Z,98516.91
2022-12-03T05:55:22.806Z,98507.28
2022-12-03T05:57:49.527Z,98503.00
2022-12-03T06:00:19.067Z,98509.22
2022-12-03T06:02:45.911Z,98515.22
2022-12-03T06:05:13.848Z,98516.19
2022-12-03T06:07:41.384Z,98513.59
2022-12-03T06:10:10.795Z,98507.53
2022-12-03T06:12:37.433Z,98511.03
2022-12-03T06:15:04.754Z,98510.09
2022-12-03T06:17:31.651Z,98509.22
2022-12-03T06:19:58.435Z,98506.63
2022-12-03T06:22:25.106Z,98504.00
2022-12-03T06:24:52.098Z,98500.53
2022-12-03T06:27:19.213Z,98501.34
2022-12-03T06:29:45.898Z,98497.75
2022-12-03T06:32:12.552Z,98504.78
2022-12-03T06:34:39.358Z,98504.78
2022-12-03T06:37:06.199Z,98503.13
2022-12-03T06:39:33.207Z,98506.63
2022-12-03T06:42:01.930Z,98492.53
2022-12-03T06:44:28.674Z,98495.19
2022-12-03T06:46:55.400Z,98496.16
2022-12-03T06:49:22.232Z,98494.44
2022-12-03T06:51:48.900Z,98502.31
2022-12-03T06:54:15.564Z,98501.53
2022-12-03T06:56:45.449Z,98509.38
2022-12-03T06:59:12.670Z,98511.13
2022-12-03T07:01:39.707Z,98504.09
2022-12-03T07:04:06.363Z,98518.09
2022-12-03T07:06:32.992Z,98518.94
2022-12-03T07:08:59.644Z,98510.25
2022-12-03T07:11:40.191Z,98518.94
2022-12-03T07:14:08.606Z,98510.19
2022-12-03T07:16:36.373Z,98520.59
2022-12-03T07:19:04.762Z,98523.16
2022-12-03T07:21:31.604Z,98529.31
2022-12-03T07:23:58.316Z,98526.69
2022-12-03T07:26:25.094Z,98532.81
2022-12-03T07:28:51.845Z,98531.94
2022-12-03T07:31:18.679Z,98534.63
2022-12-03T07:33:45.529Z,98549.47
2022-12-03T07:36:12.172Z,98543.25
2022-12-03T07:38:38.827Z,98546.69
2022-12-03T07:41:05.808Z,98552.75
2022-12-03T07:43:32.806Z,98543.97
2022-12-03T07:45:59.455Z,98536.97
2022-12-03T07:48:27.818Z,98544.03
2022-12-03T07:50:54.675Z,98537.78
2022-12-03T07:53:21.649Z,98543.97
2022-12-03T07:55:48.453Z,98545.72
2022-12-03T07:58:15.191Z,98538.66
2022-12-03T08:00:41.969Z,98545.72
2022-12-03T08:03:08.685Z,98537.16
2022-12-03T08:05:35.362Z,98540.63
2022-12-03T08:08:02.186Z,98539.69
2022-12-03T08:10:31.943Z,98540.50
2022-12-03T08:12:59.530Z,98543.19
2022-12-03T08:15:33.860Z,98536.13
2022-12-03T08:18:12.780Z,98532.56
2022-12-03T08:20:44.600Z,98524.78
2022-12-03T08:23:17.550Z,98523.94
2022-12-03T08:25:45.316Z,98523.06
2022-12-03T08:28:19.007Z,98516.94
2022-12-03T08:31:02.966Z,98515.34
2022-12-03T08:33:35.428Z,98527.56
2022-12-03T08:36:13.097Z,98514.44
2022-12-03T08:38:40.997Z,98517.94
2022-12-03T08:41:14.372Z,98513.31
2022-12-03T08:43:44.888Z,98517.72
2022-12-03T08:46:17.198Z,98511.72
2022-12-03T08:48:48.705Z,98514.31
2022-12-03T08:51:25.413Z,98522.13
2022-12-03T08:54:01.503Z,98525.69
2022-12-03T08:56:30.580Z,98524.91
2022-12-03T08:59:24.406Z,98521.50
2022-12-03T09:01:53.296Z,98522.38
2022-12-03T09:04:27.426Z,98521.44
2022-12-03T09:06:55.102Z,98522.31
2022-12-03T09:09:22.976Z,98518.88
2022-12-03T09:11:50.354Z,98525.81
2022-12-03T09:14:22.390Z,98523.13
2022-12-03T09:16:55.588Z,98516.22
2022-12-03T09:19:24.392Z,98521.50
2022-12-03T09:21:51.558Z,98519.72
2022-12-03T09:24:18.379Z,98517.09
2022-12-03T09:26:45.047Z,98510.03
2022-12-03T09:29:12.802Z,98515.28
2022-12-03T09:31:40.663Z,98522.19
2022-12-03T09:34:07.865Z,98510.81
2022-12-03T09:36:34.657Z,98510.84
2022-12-03T09:39:01.714Z,98516.88
2022-12-03T09:41:28.783Z,98512.56
2022-12-03T09:44:05.344Z,98511.81
2022-12-03T09:46:35.315Z,98505.69
2022-12-03T09:49:04.383Z,98509.16
2022-12-03T09:51:35.352Z,98503.97
2022-12-03T09:54:04.977Z,98497.09
2022-12-03T09:56:32.304Z,98489.28
2022-12-03T09:58:59.381Z,98498.88
2022-12-03T10:01:30.123Z,98490.16
2022-12-03T10:03:58.538Z,98492.78
2022-12-03T10:06:25.370Z,98488.34
2022-12-03T10:08:54.834Z,98489.31
2022-12-03T10:11:24.612Z,98477.09
2022-12-03T10:13:54.753Z,98470.13
2022-12-03T10:16:21.783Z,98471.81
2022-12-03T10:18:56.975Z,98459.63
2022-12-03T10:21:36.431Z,98468.44
2022-12-03T10:24:26.757Z,98467.50
2022-12-03T10:26:55.572Z,98473.53
2022-12-03T10:29:34.258Z,98462.16
2022-12-03T10:32:10.218Z,98456.91
2022-12-03T10:34:42.037Z,98448.31
2022-12-03T10:37:22.638Z,98454.44
2022-12-03T10:39:55.745Z,98454.50
2022-12-03T10:42:25.496Z,98458.81
2022-12-03T10:45:07.102Z,98456.16
2022-12-03T10:47:33.883Z,98464.00
2022-12-03T10:50:06.936Z,98454.44
2022-12-03T10:52:33.713Z,98456.19
2022-12-03T10:55:00.554Z,98446.63
2022-12-03T10:57:27.305Z,98449.28
2022-12-03T10:59:54.131Z,98447.56
2022-12-03T11:02:24.244Z,98445.84
2022-12-03T11:04:52.152Z,98437.94
2022-12-03T11:07:21.649Z,98433.59
2022-12-03T11:09:51.155Z,98428.41
2022-12-03T11:12:23.924Z,98421.44
2022-12-03T11:14:51.156Z,98421.44
2022-12-03T11:17:43.545Z,98412.69
2022-12-03T11:20:25.484Z,98417.91
2022-12-03T11:22:53.041Z,98412.69
2022-12-03T11:25:26.090Z,98420.53
2022-12-03T11:28:11.609Z,98415.22
2022-12-03T11:31:01.689Z,98404.75
2022-12-03T11:33:33.824Z,98407.34
2022-12-03T11:36:03.636Z,98402.16
2022-12-03T11:38:40.987Z,98396.09
2022-12-03T11:41:21.242Z,98408.31
2022-12-03T11:43:57.063Z,98396.06
2022-12-03T11:46:31.042Z,98393.47
2022-12-03T11:48:59.900Z,98399.56
2022-12-03T11:51:29.236Z,98390.84
2022-12-03T11:53:58.513Z,98396.97
2022-12-03T11:56:29.583Z,98392.59
2022-12-03T11:59:02.760Z,98396.13
2022-12-03T12:01:39.172Z,98383.91
2022-12-03T12:04:08.413Z,98386.50
2022-12-03T12:06:43.335Z,98380.44
2022-12-03T12:09:10.605Z,98374.28
2022-12-03T12:11:41.280Z,98363.81
2022-12-03T12:14:10.695Z,98363.81
2022-12-03T12:16:50.853Z,98364.69
2022-12-03T12:19:40.580Z,98365.56
2022-12-03T12:22:19.725Z,98362.94
2022-12-03T12:24:51.565Z,98357.69
2022-12-03T12:27:47.108Z,98343.69
2022-12-03T12:30:15.446Z,98352.47
2022-12-03T12:32:52.336Z,98344.59
2022-12-03T12:35:27.787Z,98362.06
2022-12-03T12:38:00.072Z,98346.38
2022-12-03T12:40:29.921Z,98340.25
2022-12-03T12:42:59.262Z,98341.13
2022-12-03T12:45:33.760Z,98339.38
2022-12-03T12:48:23.750Z,98338.53
2022-12-03T12:51:15.210Z,98334.16
2022-12-03T12:53:42.871Z,98327.16
2022-12-03T12:56:30.945Z,98324.56
2022-12-03T12:59:12.651Z,98327.13
2022-12-03T13:01:40.892Z,98325.44
2022-12-03T13:04:19.975Z,98337.66
2022-12-03T13:06:48.948Z,98337.63
2022-12-03T13:09:21.611Z,98340.25
2022-12-03T13:12:00.600Z,98329.75
2022-12-03T13:14:34.437Z,98320.16
2022-12-03T13:17:10.067Z,98317.53
2022-12-03T13:19:48.357Z,98323.66
2022-12-03T13:22:19.246Z,98321.91
2022-12-03T13:24:48.255Z,98324.53
2022-12-03T13:27:18.122Z,98321.06
2022-12-03T13:29:47.397Z,98321.88
2022-12-03T13:32:21.014Z,98326.31
2022-12-03T13:34:47.832Z,98322.81
2022-12-03T13:37:19.683Z,98315.81
2022-12-03T13:39:54.958Z,98315.81
2022-12-03T13:42:46.386Z,98314.97
2022-12-03T13:45:16.079Z,98309.72
2022-12-03T13:47:46.206Z,98303.63
2022-12-03T13:50:34.324Z,98305.34
2022-12-03T13:53:03.438Z,98301.00
2022-12-03T13:55:31.222Z,98300.09
2022-12-03T13:57:58.670Z,98300.09
2022-12-03T14:00:25.426Z,98304.50
2022-12-03T14:02:52.387Z,98303.59
2022-12-03T14:05:21.171Z,98296.59
2022-12-03T14:07:47.911Z,98308.81
2022-12-03T14:10:14.810Z,98309.69
2022-12-03T14:12:41.644Z,98302.72
2022-12-03T15:19:10.762Z,98310.56
2022-12-03T15:21:37.723Z,98310.56
2022-12-03T15:25:55.292Z,98303.59
2022-12-03T15:28:23.051Z,98291.38
2022-12-03T15:30:50.359Z,98303.63
2022-12-03T15:33:17.527Z,98302.72
2022-12-03T15:35:44.246Z,98304.50
2022-12-03T15:38:11.836Z,98304.47
2022-12-03T15:40:39.077Z,98300.94
2022-12-03T15:43:09.070Z,98305.28
2022-12-03T15:45:36.004Z,98307.94
2022-12-03T15:48:02.852Z,98307.94
2022-12-03T15:50:29.629Z,98307.09
2022-12-03T15:52:56.281Z,98307.97
2022-12-03T15:55:23.066Z,98307.97
2022-12-03T15:57:49.917Z,98305.34
2022-12-03T16:00:17.558Z,98295.72
2022-12-03T16:02:50.745Z,98291.38
2022-12-03T16:05:17.926Z,98290.50
2022-12-03T16:07:44.588Z,98293.09
2022-12-03T16:10:11.985Z,98291.34
2022-12-03T16:12:38.774Z,98293.09
2022-12-03T16:15:06.032Z,98293.13
2022-12-03T16:17:32.755Z,98293.09
2022-12-03T16:19:59.491Z,98303.53
2022-12-03T16:22:26.234Z,98289.63
2022-12-03T16:24:52.966Z,98300.94
2022-12-03T16:27:24.053Z,98290.50
2022-12-03T16:29:52.717Z,98298.34
2022-12-03T16:32:19.768Z,98306.13
2022-12-03T16:34:46.456Z,98308.78
2022-12-03T16:37:13.404Z,98305.28
2022-12-03T16:39:47.449Z,98306.16
2022-12-03T16:42:17.558Z,98297.47
2022-12-03T16:45:03.202Z,98293.97
2022-12-03T16:47:33.897Z,98287.00
2022-12-03T16:50:02.338Z,98294.00
2022-12-03T16:52:29.414Z,98291.38
2022-12-03T16:54:56.298Z,98279.16
2022-12-03T16:57:23.147Z,98286.16
2022-12-03T16:59:49.952Z,98286.97
2022-12-03T17:02:16.811Z,98286.97
2022-12-03T17:04:43.760Z,98286.97
2022-12-03T17:07:10.630Z,98281.72
2022-12-03T17:09:38.329Z,98283.50
2022-12-03T17:12:05.983Z,98280.91
2022-12-03T17:14:33.551Z,98286.13
2022-12-03T17:17:00.401Z,98285.19
2022-12-03T17:19:27.546Z,98279.09
2022-12-03T17:21:54.317Z,98277.38
2022-12-03T17:24:21.613Z,98272.09
2022-12-03T17:26:48.476Z,98275.63
2022-12-03T17:29:15.207Z,98278.22
2022-12-03T17:31:42.755Z,98267.81
2022-12-03T17:34:10.418Z,98264.34
2022-12-03T17:36:37.069Z,98263.44
2022-12-03T17:39:03.781Z,98262.59
2022-12-03T17:41:30.440Z,98252.94
2022-12-03T17:43:57.102Z,98260.81
2022-12-03T17:46:23.843Z,98260.78
2022-12-03T17:48:50.641Z,98250.38
2022-12-03T17:51:19.182Z,98260.75
2022-12-03T17:53:45.843Z,98257.28
2022-12-03T17:56:12.478Z,98252.06
2022-12-03T17:58:39.455Z,98248.59
2022-12-03T18:01:08.496Z,98244.28
2022-12-03T18:03:35.202Z,98245.16
2022-12-03T18:06:03.563Z,98246.91
2022-12-03T18:08:30.249Z,98245.13
2022-12-03T18:10:56.937Z,98248.66
2022-12-03T18:13:23.765Z,98245.16
2022-12-03T18:15:50.544Z,98240.78
2022-12-03T18:18:17.278Z,98249.50
2022-12-03T18:20:44.672Z,98245.16
2022-12-03T18:23:12.206Z,98240.81
2022-12-03T18:25:39.320Z,98234.69
2022-12-03T18:28:06.100Z,98238.19
2022-12-03T18:30:32.873Z,98235.56
2022-12-03T18:32:59.633Z,98226.84
2022-12-03T18:35:26.448Z,98233.81
2022-12-03T18:37:53.269Z,98222.47
2022-12-03T18:40:23.692Z,98231.19
2022-12-03T18:42:50.767Z,98222.47
2022-12-03T18:45:17.667Z,98227.72
2022-12-03T18:47:44.971Z,98234.69
2022-12-03T18:50:12.900Z,98225.13
2022-12-03T18:52:40.320Z,98222.47
2022-12-03T18:55:07.813Z,98219.84
2022-12-03T18:57:34.563Z,98216.34
2022-12-03T19:00:02.513Z,98214.63
2022-12-03T19:03:01.036Z,98213.75
2022-12-03T19:05:16.206Z,98222.50
2022-12-03T19:07:43.333Z,98203.28
2022-12-03T19:10:11.260Z,98205.03
2022-12-03T19:12:38.581Z,98206.78
2022-12-03T19:15:06.394Z,98197.19
2022-12-03T19:17:33.177Z,98211.16
2022-12-03T19:19:59.944Z,98206.78
2022-12-03T19:22:27.261Z,98206.81
2022-12-03T19:24:54.079Z,98196.34
2022-12-03T19:27:20.838Z,98200.69
2022-12-03T19:29:48.770Z,98201.53
2022-12-03T19:32:15.682Z,98196.31
2022-12-03T19:34:42.428Z,98202.41
2022-12-03T19:37:09.243Z,98207.66
2022-12-03T19:39:36.023Z,98202.41
2022-12-03T19:42:02.843Z,98198.94
2022-12-03T19:44:30.394Z,98206.78
2022-12-03T19:46:57.383Z,98199.81
2022-12-03T19:49:24.551Z,98202.44
2022-12-03T19:51:51.313Z,98200.69
2022-12-03T19:54:19.846Z,98201.56
2022-12-03T19:56:46.593Z,98197.19
2022-12-03T19:59:14.030Z,98191.91
2022-12-03T20:01:42.964Z,98195.44
2022-12-03T20:04:11.366Z,98201.50
2022-12-03T20:06:39.102Z,98206.75
2022-12-03T20:09:11.382Z,98209.38
2022-12-03T20:11:39.831Z,98210.25
2022-12-03T20:14:13.125Z,98205.91
2022-12-03T20:16:40.244Z,98211.97
2022-12-03T20:19:09.985Z,98208.53
2022-12-03T20:21:38.368Z,98218.13
2022-12-03T20:24:06.839Z,98207.66
2022-12-03T20:26:33.850Z,98216.38
2022-12-03T20:29:00.828Z,98208.53
2022-12-03T20:31:30.556Z,98206.78
2022-12-03T20:34:00.610Z,98202.38
2022-12-03T20:36:30.424Z,98194.59
2022-12-03T20:39:02.162Z,98198.06
2022-12-03T20:41:29.514Z,98206.78
2022-12-03T20:43:56.742Z,98209.34
2022-12-03T20:46:29.293Z,98194.56
2022-12-03T20:48:56.980Z,98202.41
2022-12-03T20:51:27.465Z,98196.31
2022-12-03T20:53:54.334Z,98199.81
2022-12-03T20:56:27.044Z,98189.34
2022-12-03T20:58:53.838Z,98195.44
2022-12-03T21:01:23.602Z,98185.84
2022-12-03T21:03:51.796Z,98178.88
2022-12-03T21:06:19.258Z,98184.13
2022-12-03T21:08:46.569Z,98180.63
2022-12-03T21:11:16.980Z,98189.34
2022-12-03T21:13:44.452Z,98187.63
2022-12-03T21:16:13.895Z,98181.50
2022-12-03T21:18:41.168Z,98179.75
2022-12-03T21:21:10.344Z,98183.25
2022-12-03T21:23:39.833Z,98178.88
2022-12-03T21:26:14.959Z,98183.25
2022-12-03T21:28:43.542Z,98179.75
2022-12-03T21:31:13.680Z,98183.22
2022-12-03T21:33:41.141Z,98179.69
2022-12-03T21:36:08.731Z,98185.84
2022-12-03T21:38:37.079Z,98180.59
2022-12-03T21:41:04.373Z,98180.59
2022-12-03T21:43:32.502Z,98182.38
2022-12-03T21:46:00.060Z,98182.38
2022-12-03T21:48:27.630Z,98191.09
2022-12-03T21:51:03.676Z,98189.34
2022-12-03T21:53:32.101Z,98186.72
2022-12-03T21:56:13.013Z,98180.63
2022-12-03T21:58:40.073Z,98178.88
2022-12-03T22:01:12.207Z,98178.88
2022-12-03T22:03:38.955Z,98174.53
2022-12-03T22:06:05.885Z,98163.19
2022-12-03T22:08:32.600Z,98162.31
2022-12-03T22:11:04.293Z,98165.81
2022-12-03T22:13:31.540Z,98155.34
2022-12-03T22:15:58.257Z,98144.03
2022-12-03T22:18:24.963Z,98158.81
2022-12-03T22:20:51.690Z,98156.22
2022-12-03T22:23:18.349Z,98151.84
2022-12-03T22:25:45.031Z,98157.97
2022-12-03T22:28:11.653Z,98154.47
2022-12-03T22:30:41.635Z,98153.59
2022-12-03T22:33:08.431Z,98146.63
2022-12-03T22:35:35.139Z,98149.25
2022-12-03T22:38:02.297Z,98139.63
2022-12-03T22:40:28.958Z,98144.91
2022-12-03T22:42:55.830Z,98143.13
2022-12-03T22:45:22.557Z,98142.28
2022-12-03T22:47:49.259Z,98128.31
2022-12-03T22:50:15.962Z,98130.97
2022-12-03T22:52:45.292Z,98126.59
2022-12-03T22:55:12.069Z,98125.69
2022-12-03T22:57:38.796Z,98130.09
2022-12-03T23:00:09.913Z,98126.59
2022-12-03T23:02:36.766Z,98123.09
2022-12-03T23:05:03.818Z,98117.88
2022-12-03T23:07:30.580Z,98121.34
2022-12-03T23:09:57.639Z,98124.81
2022-12-03T23:12:24.582Z,98140.53
2022-12-03T23:14:55.184Z,98136.16
2022-12-03T23:17:21.872Z,98129.19
2022-12-03T23:19:48.701Z,98129.19
2022-12-03T23:22:17.936Z,98132.69
2022-12-03T23:24:44.681Z,98128.31
2022-12-03T23:27:11.409Z,98126.59
2022-12-03T23:29:38.124Z,98117.84
2022-12-03T23:32:04.874Z,98120.44
2022-12-03T23:34:31.624Z,98121.31
2022-12-03T23:36:58.392Z,98114.41
2022-12-03T23:39:25.104Z,98116.97
2022-12-03T23:41:52.344Z,98109.13
2022-12-03T23:44:19.055Z,98116.09
2022-12-03T23:46:45.816Z,98111.75
2022-12-03T23:49:12.602Z,98116.91
2022-12-03T23:51:39.280Z,98111.75
2022-12-03T23:54:06.284Z,98112.66
2022-12-03T23:56:33.035Z,98114.38
2022-12-03T23:58:59.684Z,98116.13
